createdAt,value
2023-07-19T00:02:06.152Z,5.00
2023-07-19T00:04:33.867Z,4.20
2023-07-19T00:07:01.220Z,4.88
2023-07-19T00:09:28.884Z,5.53
2023-07-19T00:11:56.298Z,4.82
2023-07-19T00:14:23.930Z,5.15
2023-07-19T00:16:51.619Z,5.65
2023-07-19T00:19:21.127Z,5.80
2023-07-19T00:21:49.001Z,5.22
2023-07-19T00:24:17.098Z,5.60
2023-07-19T00:26:44.688Z,5.55
2023-07-19T00:29:12.270Z,6.03
2023-07-19T00:31:39.713Z,5.85
2023-07-19T00:34:07.796Z,5.28
2023-07-19T00:36:35.239Z,5.60
2023-07-19T00:39:04.288Z,5.80
2023-07-19T00:41:31.640Z,5.13
2023-07-19T00:43:59.747Z,5.25
2023-07-19T00:46:28.562Z,5.22
2023-07-19T00:48:57.761Z,5.82
2023-07-19T00:51:25.310Z,6.25
2023-07-19T00:53:53.977Z,6.55
2023-07-19T00:56:22.111Z,6.50
2023-07-19T00:58:53.569Z,5.65
2023-07-19T01:01:24.664Z,5.80
2023-07-19T01:03:52.894Z,5.38
2023-07-19T01:06:20.873Z,5.47
2023-07-19T01:08:50.088Z,5.28
2023-07-19T01:11:17.533Z,5.60
2023-07-19T01:13:55.242Z,5.50
2023-07-19T01:16:23.333Z,6.05
2023-07-19T01:18:51.208Z,5.35
2023-07-19T01:21:23.876Z,4.90
2023-07-19T01:23:52.243Z,4.85
2023-07-19T01:26:19.886Z,5.10
2023-07-19T01:28:47.502Z,4.85
2023-07-19T01:31:19.395Z,4.65
2023-07-19T01:33:47.515Z,4.80
2023-07-19T01:36:14.897Z,4.78
2023-07-19T01:38:42.554Z,4.18
2023-07-19T01:41:09.980Z,4.57
2023-07-19T01:43:37.607Z,4.72
2023-07-19T01:46:05.096Z,4.40
2023-07-19T01:48:34.025Z,4.80
2023-07-19T01:51:03.562Z,4.70
2023-07-19T01:53:31.234Z,5.00
2023-07-19T01:55:58.560Z,4.97
2023-07-19T01:58:26.161Z,4.80
2023-07-19T02:00:54.886Z,4.05
2023-07-19T02:03:22.952Z,4.57
2023-07-19T02:05:59.984Z,4.10
2023-07-19T02:08:27.687Z,5.28
2023-07-19T02:10:57.737Z,4.38
2023-07-19T02:13:25.373Z,4.25
2023-07-19T02:15:52.790Z,4.03
2023-07-19T02:18:23.186Z,4.70
2023-07-19T02:20:54.739Z,4.18
2023-07-19T02:23:22.877Z,4.00
2023-07-19T02:25:50.610Z,4.10
2023-07-19T02:28:18.709Z,5.07
2023-07-19T02:30:46.626Z,4.00
2023-07-19T02:33:15.177Z,3.95
2023-07-19T02:35:42.949Z,4.65
2023-07-19T02:38:11.346Z,3.85
2023-07-19T02:40:38.921Z,4.03
2023-07-19T02:43:06.514Z,3.70
2023-07-19T02:45:37.052Z,3.80
2023-07-19T02:48:05.025Z,4.20
2023-07-19T02:50:32.612Z,4.25
2023-07-19T02:53:00.272Z,3.97
2023-07-19T02:55:27.638Z,4.00
2023-07-19T02:57:55.279Z,4.22
2023-07-19T03:00:22.615Z,3.97
2023-07-19T03:02:55.507Z,4.10
2023-07-19T03:05:24.142Z,3.80
2023-07-19T03:07:52.253Z,3.95
2023-07-19T03:10:19.610Z,4.13
2023-07-19T03:12:47.245Z,4.47
2023-07-19T03:15:14.805Z,3.60
2023-07-19T03:17:42.451Z,4.30
2023-07-19T03:20:11.309Z,3.67
2023-07-19T03:22:39.011Z,3.90
2023-07-19T03:25:07.080Z,3.58
2023-07-19T03:27:34.755Z,4.15
2023-07-19T03:30:02.542Z,3.92
2023-07-19T03:32:31.017Z,4.28
2023-07-19T03:34:58.448Z,4.25
2023-07-19T03:37:26.124Z,3.80
2023-07-19T03:39:53.482Z,3.95
2023-07-19T03:42:21.101Z,3.90
2023-07-19T03:44:48.489Z,4.32
2023-07-19T03:47:16.143Z,3.55
2023-07-19T03:49:44.271Z,3.75
2023-07-19T03:52:12.253Z,3.40
2023-07-19T03:54:39.608Z,3.45
2023-07-19T03:57:07.470Z,3.67
2023-07-19T03:59:34.819Z,3.92
2023-07-19T04:02:02.507Z,4.68
2023-07-19T04:04:30.694Z,3.90
2023-07-19T04:06:58.403Z,3.70
2023-07-19T04:09:25.784Z,4.32
2023-07-19T04:11:53.417Z,3.85
2023-07-19T04:14:20.856Z,4.15
2023-07-19T04:16:48.485Z,4.15
2023-07-19T04:19:15.935Z,4.20
2023-07-19T04:21:43.555Z,4.20
2023-07-19T04:24:10.906Z,3.88
2023-07-19T04:26:38.658Z,4.28
2023-07-19T04:29:06.004Z,4.57
2023-07-19T04:31:33.655Z,5.38
2023-07-19T04:34:01.197Z,4.78
2023-07-19T04:36:28.941Z,4.30
2023-07-19T04:38:56.296Z,4.68
2023-07-19T04:41:24.119Z,4.50
2023-07-19T04:43:52.429Z,4.80
2023-07-19T04:46:21.486Z,4.32
2023-07-19T04:48:49.205Z,5.22
2023-07-19T04:51:16.905Z,5.00
2023-07-19T04:53:44.262Z,4.78
2023-07-19T04:56:11.886Z,4.63
2023-07-19T04:58:39.293Z,4.57
2023-07-19T05:01:07.048Z,4.63
2023-07-19T05:03:34.845Z,4.20
2023-07-19T05:06:03.062Z,5.00
2023-07-19T05:08:30.435Z,4.22
2023-07-19T05:10:58.068Z,4.60
2023-07-19T05:13:25.454Z,4.40
2023-07-19T05:15:53.092Z,4.13
2023-07-19T05:18:20.440Z,4.38
2023-07-19T05:20:48.143Z,4.47
2023-07-19T05:23:16.010Z,4.65
2023-07-19T05:25:43.674Z,4.53
2023-07-19T05:28:11.010Z,4.05
2023-07-19T05:30:38.804Z,4.45
2023-07-19T05:33:06.265Z,4.20
2023-07-19T05:35:34.167Z,4.40
2023-07-19T05:38:01.551Z,4.10
2023-07-19T05:40:29.277Z,3.83
2023-07-19T05:42:57.308Z,3.97
2023-07-19T05:45:24.966Z,4.28
2023-07-19T05:47:52.444Z,3.58
2023-07-19T05:50:20.172Z,3.88
2023-07-19T05:52:48.106Z,4.15
2023-07-19T05:55:16.788Z,3.70
2023-07-19T05:57:44.111Z,3.53
2023-07-19T06:00:23.676Z,3.60
2023-07-19T06:02:55.438Z,4.03
2023-07-19T06:05:25.887Z,3.60
2023-07-19T06:07:53.658Z,3.55
2023-07-19T06:10:21.380Z,3.40
2023-07-19T06:12:49.186Z,3.28
2023-07-19T06:15:17.047Z,3.05
2023-07-19T06:17:44.871Z,3.47
2023-07-19T06:20:12.722Z,3.60
2023-07-19T06:22:40.390Z,3.05
2023-07-19T06:25:08.467Z,3.40
2023-07-19T06:27:35.849Z,3.47
2023-07-19T06:30:04.400Z,3.47
2023-07-19T06:32:31.863Z,3.05
2023-07-19T06:34:59.487Z,3.22
2023-07-19T06:37:26.848Z,3.50
2023-07-19T06:39:54.501Z,3.17
2023-07-19T06:42:21.942Z,3.30
2023-07-19T06:44:49.672Z,3.40
2023-07-19T06:47:17.025Z,3.67
2023-07-19T06:49:45.773Z,3.17
2023-07-19T06:52:13.223Z,3.17
2023-07-19T06:54:40.893Z,2.95
2023-07-19T06:57:08.241Z,3.17
2023-07-19T06:59:36.380Z,3.30
2023-07-19T07:02:03.814Z,3.33
2023-07-19T07:04:31.435Z,3.20
2023-07-19T07:06:58.912Z,3.10
2023-07-19T07:09:26.918Z,3.25
2023-07-19T07:11:54.292Z,3.60
2023-07-19T07:14:21.963Z,2.90
2023-07-19T07:16:49.356Z,3.03
2023-07-19T07:19:16.724Z,3.30
2023-07-19T07:21:44.335Z,3.25
2023-07-19T07:24:11.673Z,2.85
2023-07-19T07:26:39.260Z,3.38
2023-07-19T07:29:06.672Z,3.58
2023-07-19T07:31:34.403Z,3.58
2023-07-19T07:34:01.860Z,3.63
2023-07-19T07:36:29.535Z,3.28
2023-07-19T07:38:56.948Z,3.17
2023-07-19T07:41:24.722Z,3.10
2023-07-19T07:43:52.278Z,2.95
2023-07-19T07:46:20.047Z,4.03
2023-07-19T07:48:47.428Z,3.60
2023-07-19T07:51:15.070Z,3.35
2023-07-19T07:53:42.494Z,3.63
2023-07-19T07:56:10.116Z,3.85
2023-07-19T07:58:37.497Z,3.92
2023-07-19T08:01:05.150Z,4.10
2023-07-19T08:03:32.755Z,3.88
2023-07-19T08:06:00.549Z,3.95
2023-07-19T08:08:27.947Z,3.88
2023-07-19T08:10:55.573Z,3.42
2023-07-19T08:13:22.998Z,3.65
2023-07-19T08:15:50.869Z,4.10
2023-07-19T08:18:18.237Z,3.75
2023-07-19T08:20:45.866Z,3.90
2023-07-19T08:23:13.308Z,3.97
2023-07-19T08:25:42.263Z,4.15
2023-07-19T08:28:09.679Z,3.90
2023-07-19T08:30:37.333Z,3.72
2023-07-19T08:33:09.487Z,4.38
2023-07-19T08:35:37.239Z,3.63
2023-07-19T08:38:04.651Z,3.50
2023-07-19T08:40:34.996Z,4.10
2023-07-19T08:43:07.332Z,3.83
2023-07-19T08:45:39.824Z,3.65
2023-07-19T08:48:08.534Z,3.53
2023-07-19T08:50:37.363Z,3.85
2023-07-19T08:53:05.716Z,3.70
2023-07-19T08:55:33.475Z,3.53
2023-07-19T08:58:01.128Z,3.90
2023-07-19T09:00:31.547Z,3.58
2023-07-19T09:02:59.007Z,3.97
2023-07-19T09:05:31.947Z,3.90
2023-07-19T09:08:03.722Z,3.83
2023-07-19T09:10:32.086Z,3.83
2023-07-19T09:12:59.541Z,3.85
2023-07-19T09:15:28.952Z,3.78
2023-07-19T09:17:56.660Z,3.95
2023-07-19T09:20:28.529Z,3.35
2023-07-19T09:22:58.757Z,3.60
2023-07-19T09:25:26.734Z,3.80
2023-07-19T09:27:54.810Z,3.58
2023-07-19T09:30:22.543Z,3.67
2023-07-19T09:33:01.135Z,3.85
2023-07-19T09:35:30.076Z,3.60
2023-07-19T09:37:59.804Z,4.03
2023-07-19T09:40:27.662Z,3.42
2023-07-19T09:42:56.611Z,3.50
2023-07-19T09:45:26.663Z,3.70
2023-07-19T09:47:55.193Z,3.85
2023-07-19T09:50:24.307Z,3.78
2023-07-19T09:52:53.118Z,3.35
2023-07-19T09:55:21.667Z,3.33
2023-07-19T09:57:50.370Z,4.10
2023-07-19T10:00:18.282Z,3.42
2023-07-19T10:02:46.619Z,3.63
2023-07-19T10:05:15.388Z,3.40
2023-07-19T10:07:51.463Z,3.78
2023-07-19T10:10:21.357Z,3.58
2023-07-19T10:12:50.133Z,3.75
2023-07-19T10:15:21.930Z,3.92
2023-07-19T10:18:00.713Z,3.53
2023-07-19T10:20:34.261Z,3.47
2023-07-19T10:23:04.514Z,4.28
2023-07-19T10:25:49.444Z,3.40
2023-07-19T10:28:31.530Z,4.07
2023-07-19T10:31:17.363Z,3.63
2023-07-19T10:33:48.634Z,3.55
2023-07-19T10:36:16.288Z,3.80
2023-07-19T10:38:44.087Z,3.65
2023-07-19T10:41:13.610Z,3.25
2023-07-19T10:43:46.974Z,4.10
2023-07-19T10:48:43.536Z,4.18
2023-07-19T10:51:11.785Z,3.50
2023-07-19T10:54:00.511Z,3.63
2023-07-19T10:56:29.259Z,3.92
2023-07-19T10:59:00.616Z,3.65
2023-07-19T11:01:30.711Z,3.78
2023-07-19T11:04:05.908Z,3.80
2023-07-19T11:06:57.949Z,3.67
2023-07-19T11:09:26.630Z,3.70
2023-07-19T11:11:54.617Z,3.63
2023-07-19T11:14:32.717Z,3.85
2023-07-19T11:17:01.179Z,3.85
2023-07-19T11:19:40.088Z,3.40
2023-07-19T11:22:09.120Z,3.70
2023-07-19T11:24:38.925Z,3.47
2023-07-19T11:27:07.714Z,3.70
2023-07-19T11:29:35.953Z,3.70
2023-07-19T11:32:21.746Z,3.28
2023-07-19T11:34:52.296Z,3.58
2023-07-19T11:37:27.451Z,3.78
2023-07-19T11:40:00.487Z,3.78
2023-07-19T11:42:48.576Z,3.63
2023-07-19T11:45:18.700Z,3.80
2023-07-19T11:47:49.016Z,4.25
2023-07-19T11:50:16.792Z,3.80
2023-07-19T11:52:55.336Z,4.25
2023-07-19T11:55:23.757Z,3.90
2023-07-19T11:57:53.038Z,5.78
2023-07-19T12:00:24.814Z,6.47
2023-07-19T12:02:53.325Z,6.15
2023-07-19T12:05:23.396Z,5.88
2023-07-19T12:07:51.866Z,5.22
2023-07-19T12:10:21.338Z,5.40
2023-07-19T12:12:49.740Z,4.95
2023-07-19T12:15:18.266Z,4.80
2023-07-19T12:17:46.453Z,4.72
2023-07-19T12:20:13.855Z,5.05
2023-07-19T12:22:43.572Z,5.00
2023-07-19T12:25:11.575Z,4.95
2023-07-19T12:27:39.945Z,4.43
2023-07-19T12:30:08.113Z,4.47
2023-07-19T12:32:35.842Z,4.53
2023-07-19T12:35:03.851Z,4.22
2023-07-19T12:37:31.606Z,4.25
2023-07-19T12:39:59.102Z,4.63
2023-07-19T12:42:29.092Z,4.25
2023-07-19T12:44:56.434Z,4.30
2023-07-19T12:47:24.109Z,4.70
2023-07-19T12:49:51.449Z,4.50
2023-07-19T12:52:20.991Z,4.30
2023-07-19T12:54:48.420Z,4.15
2023-07-19T12:57:16.035Z,4.13
2023-07-19T12:59:43.571Z,4.43
2023-07-19T13:02:11.280Z,4.30
2023-07-19T13:04:38.731Z,4.10
2023-07-19T13:07:06.820Z,3.90
2023-07-19T13:09:34.712Z,4.32
2023-07-19T13:12:02.552Z,3.67
2023-07-19T13:14:29.883Z,3.75
2023-07-19T13:17:15.532Z,3.60
2023-07-19T13:19:46.368Z,4.05
2023-07-19T13:22:14.075Z,4.10
2023-07-19T13:24:41.416Z,3.83
2023-07-19T13:27:09.095Z,3.70
2023-07-19T13:29:38.110Z,3.58
2023-07-19T13:32:07.326Z,3.50
2023-07-19T13:34:36.147Z,3.65
2023-07-19T13:37:06.286Z,3.60
2023-07-19T13:39:36.038Z,3.80
2023-07-19T13:42:05.196Z,3.90
2023-07-19T13:44:33.079Z,3.60
2023-07-19T13:47:01.877Z,3.38
2023-07-19T13:49:29.417Z,3.15
2023-07-19T13:51:57.249Z,3.20
2023-07-19T13:54:24.968Z,3.83
2023-07-19T13:56:52.644Z,3.17
2023-07-19T13:59:19.966Z,3.15
2023-07-19T14:01:48.885Z,3.00
2023-07-19T14:04:16.412Z,3.20
2023-07-19T14:06:44.232Z,3.50
2023-07-19T14:09:11.670Z,3.15
2023-07-19T14:11:39.501Z,3.10
2023-07-19T14:14:06.833Z,3.22
2023-07-19T14:16:34.772Z,3.20
2023-07-19T14:19:02.732Z,3.28
2023-07-19T14:21:30.329Z,3.10
2023-07-19T14:23:57.668Z,3.35
2023-07-19T14:26:25.547Z,3.53
2023-07-19T14:28:53.306Z,3.15
2023-07-19T14:31:22.745Z,3.55
2023-07-19T14:33:50.338Z,3.33
2023-07-19T14:36:18.019Z,3.30
2023-07-19T14:38:45.362Z,3.50
2023-07-19T14:41:13.364Z,3.10
2023-07-19T14:43:42.754Z,3.20
2023-07-19T14:46:10.389Z,3.05
2023-07-19T14:48:37.809Z,3.42
2023-07-19T14:51:06.745Z,3.30
2023-07-19T14:53:34.526Z,3.47
2023-07-19T14:56:02.147Z,3.13
2023-07-19T14:58:29.500Z,3.00
2023-07-19T15:00:57.612Z,3.10
2023-07-19T15:05:57.313Z,3.17
2023-07-19T15:08:24.698Z,3.20
2023-07-19T15:10:52.385Z,3.05
2023-07-19T15:13:21.184Z,2.75
2023-07-19T15:15:49.164Z,2.90
2023-07-19T15:18:18.149Z,3.08
2023-07-19T15:20:48.827Z,3.05
2023-07-19T15:23:16.889Z,3.00
2023-07-19T15:25:44.559Z,3.00
2023-07-19T15:28:28.197Z,2.90
2023-07-19T15:30:59.415Z,3.13
2023-07-19T15:33:27.117Z,2.92
2023-07-19T15:35:54.736Z,3.08
2023-07-19T15:38:24.269Z,2.80
2023-07-19T15:40:52.821Z,2.80
2023-07-19T15:43:20.930Z,3.17
2023-07-19T15:45:48.644Z,2.70
2023-07-19T15:48:16.007Z,2.60
2023-07-19T15:50:44.824Z,3.00
2023-07-19T15:53:15.816Z,2.90
2023-07-19T15:55:43.532Z,3.00
2023-07-19T15:58:10.852Z,2.90
2023-07-19T16:00:38.711Z,2.42
2023-07-19T16:03:06.196Z,2.95
2023-07-19T16:05:34.089Z,2.72
2023-07-19T16:08:01.631Z,2.88
2023-07-19T16:10:29.328Z,2.63
2023-07-19T16:12:56.819Z,2.95
2023-07-19T16:15:24.417Z,2.70
2023-07-19T16:17:51.814Z,2.88
2023-07-19T16:20:19.668Z,2.70
2023-07-19T16:22:47.731Z,2.92
2023-07-19T16:25:16.006Z,2.70
2023-07-19T16:27:43.364Z,2.58
2023-07-19T16:30:11.384Z,3.10
2023-07-19T16:32:39.309Z,2.42
2023-07-19T16:35:07.089Z,2.60
2023-07-19T16:37:34.406Z,2.65
2023-07-19T16:40:02.766Z,2.72
2023-07-19T16:42:30.224Z,2.58
2023-07-19T16:44:57.848Z,2.70
2023-07-19T16:47:25.286Z,2.55
2023-07-19T16:49:52.941Z,2.50
2023-07-19T16:52:20.299Z,2.65
2023-07-19T16:54:47.955Z,2.80
2023-07-19T16:57:15.278Z,2.42
2023-07-19T16:59:42.910Z,2.78
2023-07-19T17:02:11.277Z,2.80
2023-07-19T17:04:38.934Z,2.40
2023-07-19T17:07:06.318Z,2.40
2023-07-19T17:09:34.209Z,2.65
2023-07-19T17:12:02.688Z,2.50
2023-07-19T17:14:30.418Z,2.30
2023-07-19T17:17:10.940Z,2.30
2023-07-19T17:19:40.651Z,2.55
2023-07-19T17:22:09.426Z,2.53
2023-07-19T17:24:37.356Z,2.28
2023-07-19T17:27:05.384Z,2.53
2023-07-19T17:29:33.218Z,2.30
2023-07-19T17:32:00.844Z,2.30
2023-07-19T17:34:28.563Z,2.75
2023-07-19T17:36:56.003Z,2.28
2023-07-19T17:39:23.878Z,2.65
2023-07-19T17:41:51.407Z,2.50
2023-07-19T17:44:19.091Z,2.35
2023-07-19T17:46:46.560Z,2.20
2023-07-19T17:49:14.238Z,2.80
2023-07-19T17:51:41.851Z,2.47
2023-07-19T17:54:09.460Z,2.70
2023-07-19T17:56:36.832Z,2.35
2023-07-19T17:59:04.507Z,2.50
2023-07-19T18:01:31.910Z,2.60
2023-07-19T18:03:59.631Z,2.30
2023-07-19T18:06:27.017Z,2.33
2023-07-19T18:08:54.624Z,2.50
2023-07-19T18:11:22.305Z,2.78
2023-07-19T18:13:50.445Z,2.28
2023-07-19T18:16:17.815Z,2.67
2023-07-19T18:18:45.461Z,2.53
2023-07-19T18:21:12.924Z,2.63
2023-07-19T18:23:41.068Z,2.67
2023-07-19T18:26:08.476Z,2.80
2023-07-19T18:28:36.323Z,2.97
2023-07-19T18:31:04.312Z,3.08
2023-07-19T18:33:32.485Z,3.30
2023-07-19T18:35:59.821Z,4.60
2023-07-19T18:38:27.443Z,5.05
2023-07-19T18:40:55.325Z,5.40
2023-07-19T18:43:22.999Z,6.47
2023-07-19T18:45:50.540Z,6.90
2023-07-19T18:48:18.466Z,7.47
2023-07-19T18:50:45.867Z,7.75
2023-07-19T18:53:13.486Z,7.68
2023-07-19T18:55:40.856Z,7.72
2023-07-19T18:58:08.612Z,7.22
2023-07-19T19:00:36.152Z,7.65
2023-07-19T19:03:04.387Z,7.15
2023-07-19T19:05:33.067Z,7.13
2023-07-19T19:08:00.686Z,7.25
2023-07-19T19:10:28.006Z,7.20
2023-07-19T19:12:55.606Z,6.38
2023-07-19T19:15:23.111Z,6.80
2023-07-19T19:17:50.820Z,6.30
2023-07-19T19:20:18.447Z,7.05
2023-07-19T19:22:46.186Z,6.57
2023-07-19T19:25:13.585Z,6.50
2023-07-19T19:27:41.354Z,6.03
2023-07-19T19:30:09.180Z,5.53
2023-07-19T19:32:37.123Z,5.70
2023-07-19T19:35:04.910Z,6.13
2023-07-19T19:37:32.735Z,5.90
2023-07-19T19:40:00.206Z,5.60
2023-07-19T19:42:30.059Z,5.97
2023-07-19T19:44:57.447Z,5.78
2023-07-19T19:47:25.069Z,5.40
2023-07-19T19:49:52.592Z,5.35
2023-07-19T19:52:21.088Z,5.38
2023-07-19T19:54:49.952Z,5.55
2023-07-19T19:57:18.033Z,5.47
2023-07-19T19:59:48.585Z,4.97
2023-07-19T20:04:46.911Z,5.20
2023-07-19T20:07:14.677Z,4.70
2023-07-19T20:09:55.668Z,4.90
2023-07-19T20:12:28.888Z,4.60
2023-07-19T20:14:56.457Z,4.47
2023-07-19T20:17:24.086Z,4.40
2023-07-19T20:19:54.204Z,4.70
2023-07-19T20:22:22.168Z,4.78
2023-07-19T20:24:57.869Z,5.00
2023-07-19T20:27:40.487Z,4.57
2023-07-19T20:30:10.543Z,4.57
2023-07-19T20:35:09.491Z,4.72
2023-07-19T20:37:39.357Z,4.78
2023-07-19T20:41:34.148Z,4.50
2023-07-19T20:42:57.440Z,5.10
2023-07-19T20:45:28.910Z,4.57
2023-07-19T20:48:01.571Z,4.88
2023-07-19T20:50:30.270Z,4.95
2023-07-19T20:52:57.957Z,4.90
2023-07-19T20:55:25.426Z,5.00
2023-07-19T20:57:53.174Z,4.93
2023-07-19T21:00:21.863Z,4.97
2023-07-19T21:02:49.694Z,5.10
2023-07-19T21:05:17.319Z,4.95
2023-07-19T21:07:44.957Z,4.88
2023-07-19T21:10:12.610Z,5.03
2023-07-19T21:12:40.351Z,4.85
2023-07-19T21:15:08.759Z,4.70
2023-07-19T21:17:36.559Z,5.05
2023-07-19T21:20:04.331Z,4.72
2023-07-19T21:22:32.127Z,4.93
2023-07-19T21:25:14.943Z,4.72
2023-07-19T21:27:43.096Z,4.90
2023-07-19T21:30:12.651Z,4.97
2023-07-19T21:32:41.062Z,4.97
2023-07-19T21:35:08.944Z,5.03
2023-07-19T21:37:37.935Z,5.15
2023-07-19T21:40:06.069Z,5.65
2023-07-19T21:42:34.016Z,5.18
2023-07-19T21:45:01.406Z,5.18
2023-07-19T21:47:29.145Z,5.45
2023-07-19T21:49:56.927Z,5.97
2023-07-19T21:52:25.841Z,5.72
2023-07-19T21:54:53.193Z,5.80
2023-07-19T21:57:20.798Z,5.78
2023-07-19T21:59:48.142Z,6.10
2023-07-19T22:02:15.732Z,5.50
2023-07-19T22:04:43.143Z,5.78
2023-07-19T22:08:14.317Z,6.25
2023-07-19T22:11:10.459Z,5.57
2023-07-19T22:13:40.308Z,5.72
2023-07-19T22:16:07.686Z,6.50
2023-07-19T22:18:35.401Z,6.35
2023-07-19T22:21:19.724Z,6.03
2023-07-19T22:23:48.888Z,5.88
2023-07-19T22:26:16.371Z,6.10
2023-07-19T22:28:44.089Z,5.57
2023-07-19T22:31:11.634Z,5.60
2023-07-19T22:33:39.374Z,5.57
2023-07-19T22:36:06.812Z,6.10
2023-07-19T22:38:34.464Z,5.38
2023-07-19T22:41:01.804Z,5.93
2023-07-19T22:43:29.708Z,5.50
2023-07-19T22:45:57.021Z,5.60
2023-07-19T22:48:24.686Z,6.07
2023-07-19T22:50:52.019Z,5.90
2023-07-19T22:53:19.705Z,5.70
2023-07-19T22:55:47.111Z,5.72
2023-07-19T22:58:14.762Z,5.68
2023-07-19T23:00:42.724Z,5.57
2023-07-19T23:03:10.475Z,5.45
2023-07-19T23:05:38.339Z,5.28
2023-07-19T23:08:05.953Z,5.82
2023-07-19T23:10:33.280Z,5.30
2023-07-19T23:13:00.885Z,4.85
2023-07-19T23:15:28.266Z,5.45
2023-07-19T23:17:55.905Z,5.00
2023-07-19T23:20:23.285Z,5.45
2023-07-19T23:22:50.963Z,5.20
2023-07-19T23:25:19.302Z,5.22
2023-07-19T23:27:47.011Z,5.20
2023-07-19T23:30:14.589Z,4.57
2023-07-19T23:32:42.191Z,4.50
2023-07-19T23:35:09.663Z,5.07
2023-07-19T23:37:37.339Z,5.30
2023-07-19T23:40:07.968Z,4.78
2023-07-19T23:42:35.637Z,4.78
2023-07-19T23:45:03.089Z,5.05
2023-07-19T23:47:30.858Z,4.93
2023-07-19T23:49:58.203Z,5.07
2023-07-19T23:52:25.801Z,4.85
2023-07-19T23:54:53.135Z,5.68
2023-07-19T23:57:20.737Z,5.18
2023-07-19T23:59:48.107Z,4.95
